Time;durP1;ratioP1;P1;durP2;ratioP2;P2;SDS_P1;SDS_P2;PMS_P1;PMS_P2;Temp;Humidity;BMP_temperature;BMP_pressure;BME280_temperature;BME280_humidity;BME280_pressure;Samples;Min_cycle;Max_cycle;Signal;HPM_P1;HPM_P2
2021/05/01 00:01:59;;;;;;;20.55;15.50;;;9.00;98.40;;;;;;5000310;28;20042;-90
2021/05/01 00:04:25;;;;;;;23.48;16.25;;;9.00;98.30;;;;;;5002385;28;20022;-91
2021/05/01 00:06:51;;;;;;;25.50;18.35;;;9.00;98.30;;;;;;4997802;28;20044;-90
2021/05/01 00:09:16;;;;;;;24.83;17.40;;;9.00;98.40;;;;;;4997385;28;20643;-89
2021/05/01 00:11:42;;;;;;;24.58;18.40;;;9.00;98.40;;;;;;4993345;28;20030;-89
2021/05/01 00:14:08;;;;;;;22.67;17.40;;;9.00;98.40;;;;;;4977893;28;20034;-90
2021/05/01 00:16:34;;;;;;;25.10;18.92;;;9.00;98.40;;;;;;4982630;28;20088;-90
2021/05/01 00:19:00;;;;;;;28.58;20.35;;;9.00;98.40;;;;;;4999285;28;20026;-89
2021/05/01 00:21:26;;;;;;;26.27;20.85;;;9.00;98.40;;;;;;4998600;28;20022;-91
2021/05/01 00:23:52;;;;;;;26.67;21.02;;;9.00;98.30;;;;;;4999731;28;20025;-89
2021/05/01 00:26:19;;;;;;;26.35;21.40;;;9.00;98.30;;;;;;5000992;28;20057;-90
2021/05/01 00:28:44;;;;;;;27.05;21.70;;;9.00;98.20;;;;;;5005200;28;20026;-91
2021/05/01 00:31:10;;;;;;;28.63;22.48;;;8.90;98.20;;;;;;5014830;28;20022;-91
2021/05/01 00:33:39;;;;;;;29.83;22.17;;;8.90;98.30;;;;;;5014569;28;20025;-89
2021/05/01 00:36:05;;;;;;;28.98;22.10;;;8.90;98.20;;;;;;5004191;28;20088;-89
2021/05/01 00:38:31;;;;;;;28.80;21.60;;;9.00;98.20;;;;;;4993835;28;20026;-89
2021/05/01 00:40:59;;;;;;;29.58;21.20;;;8.90;98.20;;;;;;5026418;28;20021;-90
2021/05/01 00:43:25;;;;;;;29.70;23.00;;;8.90;98.10;;;;;;5006210;28;20057;-91
2021/05/01 00:45:51;;;;;;;30.70;23.63;;;8.90;98.10;;;;;;5000808;28;20030;-89
2021/05/01 00:48:17;;;;;;;32.13;23.15;;;8.90;98.10;;;;;;4999815;28;20028;-89
2021/05/01 00:50:42;;;;;;;28.90;22.65;;;8.90;98.00;;;;;;4997007;28;20072;-89
2021/05/01 00:53:11;;;;;;;30.52;22.83;;;8.90;98.10;;;;;;4996511;28;20462;-89
2021/05/01 00:55:37;;;;;;;29.33;22.65;;;8.90;98.10;;;;;;5013934;28;20033;-91
2021/05/01 00:58:03;;;;;;;30.83;21.67;;;8.90;98.10;;;;;;4995926;28;20026;-89
2021/05/01 01:00:45;;;;;;;31.05;22.50;;;8.90;98.10;;;;;;4995826;28;20029;-89
2021/05/01 01:03:12;;;;;;;30.73;23.08;;;8.90;98.10;;;;;;4998522;28;20057;-91
2021/05/01 01:05:38;;;;;;;28.92;22.30;;;8.80;97.90;;;;;;4996167;28;20047;-90
2021/05/01 01:08:04;;;;;;;26.92;22.38;;;8.70;97.90;;;;;;4996133;28;20018;-90
2021/05/01 01:10:33;;;;;;;32.90;22.58;;;8.70;97.90;;;;;;4995863;28;20461;-91
2021/05/01 01:12:59;;;;;;;27.92;22.25;;;8.70;98.00;;;;;;4990472;28;20530;-92
2021/05/01 01:15:26;;;;;;;28.00;20.27;;;8.70;98.00;;;;;;4996683;28;20022;-89
2021/05/01 01:17:52;;;;;;;28.83;21.73;;;8.70;98.00;;;;;;4989106;28;20033;-95
2021/05/01 01:20:27;;;;;;;28.20;21.77;;;8.60;97.90;;;;;;4996339;28;20030;-92
2021/05/01 01:22:54;;;;;;;25.15;20.77;;;8.60;98.00;;;;;;4982077;28;20030;-90
2021/05/01 01:25:23;;;;;;;23.75;19.30;;;8.60;98.00;;;;;;4995584;28;20020;-90
2021/05/01 01:27:51;;;;;;;25.80;19.52;;;8.60;98.00;;;;;;4995588;28;20026;-90
2021/05/01 01:30:19;;;;;;;24.08;19.20;;;8.60;97.90;;;;;;4979605;28;20485;-90
2021/05/01 01:32:45;;;;;;;23.73;17.88;;;8.50;97.90;;;;;;5011820;28;20021;-91
2021/05/01 01:35:13;;;;;;;24.83;17.35;;;8.50;97.90;;;;;;4995535;28;20017;-91
2021/05/01 01:37:43;;;;;;;21.38;15.77;;;8.40;97.80;;;;;;4995495;28;20080;-91
2021/05/01 01:40:11;;;;;;;21.13;16.02;;;8.40;98.10;;;;;;4995733;28;20087;-90
2021/05/01 01:42:40;;;;;;;17.85;14.50;;;8.30;97.80;;;;;;4995945;28;20037;-90
2021/05/01 01:45:09;;;;;;;20.80;15.15;;;8.30;97.80;;;;;;4995556;28;20026;-91
2021/05/01 01:47:35;;;;;;;21.35;14.98;;;8.30;97.90;;;;;;4995600;28;20053;-92
2021/05/01 01:50:07;;;;;;;17.95;13.82;;;8.30;98.10;;;;;;4995442;28;20060;-91
2021/05/01 01:52:36;;;;;;;18.02;13.07;;;8.30;98.00;;;;;;4995349;28;20121;-91
2021/05/01 01:55:03;;;;;;;19.40;12.23;;;8.30;98.10;;;;;;4981521;28;20571;-91
2021/05/01 01:57:29;;;;;;;17.80;12.55;;;8.20;98.00;;;;;;4984404;28;20026;-91
2021/05/01 01:59:55;;;;;;;13.00;11.00;;;8.20;98.00;;;;;;5008852;28;20439;-91
2021/05/01 02:02:22;;;;;;;15.68;11.50;;;8.20;98.10;;;;;;4994784;28;20406;-91
2021/05/01 02:04:48;;;;;;;16.13;11.93;;;8.20;98.10;;;;;;5010593;28;20088;-91
2021/05/01 02:07:14;;;;;;;16.73;11.77;;;8.20;98.20;;;;;;4982556;28;20030;-91
2021/05/01 02:09:40;;;;;;;16.65;11.00;;;8.20;98.10;;;;;;4978589;28;20119;-92
2021/05/01 02:12:09;;;;;;;14.80;11.13;;;8.20;98.20;;;;;;4995114;28;20025;-91
2021/05/01 02:14:34;;;;;;;17.27;11.43;;;8.20;98.20;;;;;;5013242;28;20038;-91
2021/05/01 02:17:03;;;;;;;16.23;11.10;;;8.20;98.20;;;;;;4985738;28;20127;-91
2021/05/01 02:19:29;;;;;;;19.08;11.82;;;8.10;98.10;;;;;;4978071;28;20044;-91
2021/05/01 02:21:55;;;;;;;16.38;11.40;;;8.20;98.20;;;;;;4996508;28;20116;-91
2021/05/01 02:24:23;;;;;;;14.45;10.88;;;8.20;98.20;;;;;;4998770;28;20026;-92
2021/05/01 02:26:49;;;;;;;16.13;11.45;;;8.20;98.20;;;;;;4999309;28;20069;-92
2021/05/01 02:29:15;;;;;;;17.77;11.50;;;8.10;98.10;;;;;;4986386;28;20033;-91
2021/05/01 02:31:43;;;;;;;17.70;11.82;;;8.20;98.00;;;;;;4997892;28;20478;-92
2021/05/01 02:34:11;;;;;;;17.08;12.07;;;8.10;98.00;;;;;;4988163;28;20396;-92
2021/05/01 02:36:37;;;;;;;19.13;12.13;;;8.10;98.00;;;;;;4950391;28;20064;-92
2021/05/01 02:39:05;;;;;;;18.90;12.02;;;8.10;98.00;;;;;;5015085;28;20042;-92
2021/05/01 02:41:31;;;;;;;16.55;11.57;;;8.10;98.00;;;;;;4999036;28;20022;-91
2021/05/01 02:43:57;;;;;;;17.27;11.98;;;8.10;98.00;;;;;;4981478;28;20065;-91
2021/05/01 02:46:23;;;;;;;20.48;11.70;;;8.10;97.90;;;;;;5001286;28;20026;-91
2021/05/01 02:48:49;;;;;;;15.20;11.75;;;8.10;97.90;;;;;;5029352;28;20026;-90
2021/05/01 02:51:14;;;;;;;14.73;11.70;;;8.00;97.90;;;;;;5003440;28;20072;-91
2021/05/01 02:53:42;;;;;;;18.55;11.68;;;8.00;97.80;;;;;;4981394;28;20125;-90
2021/05/01 02:56:11;;;;;;;16.30;11.82;;;8.00;97.80;;;;;;5017475;28;20054;-90
2021/05/01 02:58:36;;;;;;;14.93;11.50;;;7.90;97.70;;;;;;4982708;28;20037;-90
2021/05/01 03:01:10;;;;;;;15.63;12.52;;;7.80;97.80;;;;;;4998048;28;20064;-90
2021/05/01 03:03:36;;;;;;;19.45;12.13;;;7.90;97.80;;;;;;4982537;28;20034;-91
2021/05/01 03:06:02;;;;;;;16.90;12.30;;;7.80;97.90;;;;;;4995185;28;20048;-90
2021/05/01 03:08:28;;;;;;;16.35;12.38;;;7.80;97.80;;;;;;4997878;28;20026;-89
2021/05/01 03:10:53;;;;;;;20.42;13.18;;;7.80;97.90;;;;;;4998897;28;20030;-89
2021/05/01 03:13:22;;;;;;;15.18;12.05;;;7.70;97.90;;;;;;4981791;28;20030;-89
2021/05/01 03:15:47;;;;;;;17.15;12.63;;;7.70;97.90;;;;;;4978561;28;20035;-89
2021/05/01 03:18:16;;;;;;;17.83;13.15;;;7.70;97.90;;;;;;5013631;28;20127;-90
2021/05/01 03:20:49;;;;;;;19.20;12.60;;;7.70;97.90;;;;;;4997640;28;20460;-90
2021/05/01 03:23:15;;;;;;;17.75;13.50;;;7.70;97.90;;;;;;4982262;28;20057;-90
2021/05/01 03:25:40;;;;;;;20.23;13.52;;;7.60;97.90;;;;;;4998193;28;20053;-90
2021/05/01 03:28:08;;;;;;;19.40;14.07;;;7.60;97.90;;;;;;4997642;28;20053;-92
2021/05/01 03:30:37;;;;;;;19.52;13.68;;;7.70;98.00;;;;;;4996974;28;20026;-90
2021/05/01 03:33:09;;;;;;;17.40;13.18;;;7.70;97.90;;;;;;4996248;28;20478;-93
2021/05/01 03:35:35;;;;;;;18.58;12.70;;;7.60;97.70;;;;;;4997573;28;20036;-90
2021/05/01 03:38:01;;;;;;;19.02;13.02;;;7.50;97.70;;;;;;4997750;28;20085;-92
2021/05/01 03:40:29;;;;;;;18.52;13.52;;;7.40;97.70;;;;;;4997401;28;20022;-90
2021/05/01 03:42:55;;;;;;;21.30;14.43;;;7.40;97.60;;;;;;4997698;28;20040;-90
2021/05/01 03:45:26;;;;;;;20.00;13.88;;;7.40;97.70;;;;;;4997498;28;20025;-90
2021/05/01 03:47:55;;;;;;;17.52;13.43;;;7.40;97.70;;;;;;4997462;28;20463;-90
2021/05/01 03:50:20;;;;;;;21.25;13.75;;;7.40;97.70;;;;;;4997336;28;20371;-90
2021/05/01 03:52:46;;;;;;;19.38;13.20;;;7.30;97.70;;;;;;4997366;28;20034;-89
2021/05/01 03:55:12;;;;;;;20.67;13.13;;;7.30;97.70;;;;;;4997054;28;20029;-90
2021/05/01 03:57:41;;;;;;;17.58;12.98;;;7.30;97.70;;;;;;4997532;28;20104;-90
2021/05/01 04:00:07;;;;;;;22.45;14.73;;;7.20;97.60;;;;;;4997286;28;20026;-90
2021/05/01 04:02:33;;;;;;;17.45;13.65;;;7.20;97.70;;;;;;5000619;28;20046;-91
2021/05/01 04:04:59;;;;;;;17.30;12.45;;;7.20;97.70;;;;;;5003312;28;20076;-91
2021/05/01 04:07:25;;;;;;;18.98;12.73;;;7.10;97.60;;;;;;5000261;28;20109;-91
2021/05/01 04:09:51;;;;;;;17.77;13.05;;;7.10;97.70;;;;;;4997467;28;20054;-92
2021/05/01 04:12:16;;;;;;;17.98;13.55;;;7.10;97.60;;;;;;4997056;28;20056;-92
2021/05/01 04:14:42;;;;;;;17.23;13.00;;;7.00;97.60;;;;;;4997435;28;20037;-91
2021/05/01 04:17:08;;;;;;;20.83;14.30;;;7.00;97.60;;;;;;4980550;28;20030;-91
2021/05/01 04:19:33;;;;;;;22.67;14.07;;;7.00;97.70;;;;;;4997856;28;20037;-90
2021/05/01 04:22:04;;;;;;;18.15;12.75;;;6.90;97.60;;;;;;4997059;28;20482;-91
2021/05/01 04:24:31;;;;;;;21.95;13.63;;;6.90;97.60;;;;;;4980662;28;20025;-92
2021/05/01 04:26:57;;;;;;;18.63;14.65;;;6.90;97.60;;;;;;4997266;28;20022;-90
2021/05/01 04:29:23;;;;;;;20.15;14.68;;;6.80;97.70;;;;;;4996895;28;20036;-90
2021/05/01 04:31:48;;;;;;;20.38;14.05;;;6.80;97.80;;;;;;4996803;28;20029;-90
2021/05/01 04:34:16;;;;;;;19.52;14.20;;;6.80;97.80;;;;;;4996750;28;20462;-90
2021/05/01 04:36:45;;;;;;;19.20;14.82;;;6.80;97.80;;;;;;4980723;28;20048;-90
2021/05/01 04:39:16;;;;;;;20.52;15.13;;;6.80;97.90;;;;;;4996773;28;20026;-90
2021/05/01 04:41:45;;;;;;;18.27;14.80;;;6.80;97.80;;;;;;4996977;28;20026;-91
2021/05/01 04:44:13;;;;;;;19.23;14.88;;;6.70;97.80;;;;;;4996550;28;20036;-90
2021/05/01 04:46:39;;;;;;;23.38;16.25;;;6.70;97.80;;;;;;4995791;28;20026;-90
2021/05/01 04:49:06;;;;;;;20.73;15.23;;;6.70;97.90;;;;;;4996832;28;20117;-91
2021/05/01 04:51:33;;;;;;;22.58;16.45;;;6.70;97.80;;;;;;4996504;28;20478;-91
2021/05/01 04:53:59;;;;;;;21.67;16.60;;;6.70;97.90;;;;;;5014316;28;20071;-90
2021/05/01 04:56:25;;;;;;;21.00;16.98;;;6.60;97.90;;;;;;5014475;28;20026;-92
2021/05/01 04:58:51;;;;;;;20.95;15.80;;;6.60;97.90;;;;;;4998074;28;20021;-90
2021/05/01 05:01:17;;;;;;;22.52;16.13;;;6.60;97.90;;;;;;5005887;28;20030;-92
2021/05/01 05:03:42;;;;;;;20.15;15.98;;;6.50;97.90;;;;;;5010265;28;20036;-92
2021/05/01 05:06:08;;;;;;;19.85;15.80;;;6.50;98.00;;;;;;5000609;28;20541;-90
2021/05/01 05:08:36;;;;;;;21.95;16.95;;;6.50;98.10;;;;;;4999694;28;20037;-90
2021/05/01 05:11:05;;;;;;;21.95;16.85;;;6.50;98.00;;;;;;4997320;28;20034;-90
2021/05/01 05:13:31;;;;;;;26.35;17.65;;;6.50;98.10;;;;;;4997329;28;20034;-91
2021/05/01 05:15:57;;;;;;;25.02;18.60;;;6.50;98.10;;;;;;4996917;28;20026;-91
2021/05/01 05:18:25;;;;;;;24.85;17.85;;;6.50;98.10;;;;;;4997169;28;20377;-90
2021/05/01 05:20:54;;;;;;;23.42;18.67;;;6.50;98.20;;;;;;4987388;28;20042;-90
2021/05/01 05:23:19;;;;;;;23.58;17.98;;;6.50;98.20;;;;;;4998946;28;20033;-90
2021/05/01 05:25:45;;;;;;;22.48;16.80;;;6.50;98.20;;;;;;5000483;28;20022;-91
2021/05/01 05:28:11;;;;;;;26.02;18.98;;;6.50;98.30;;;;;;4995677;28;20033;-90
2021/05/01 05:30:39;;;;;;;24.77;17.90;;;6.50;98.30;;;;;;4997035;28;20030;-90
2021/05/01 05:33:08;;;;;;;22.52;17.35;;;6.50;98.30;;;;;;4980776;28;20030;-91
2021/05/01 05:35:36;;;;;;;24.13;18.42;;;6.50;98.30;;;;;;4996502;28;20045;-90
2021/05/01 05:38:04;;;;;;;28.90;18.10;;;6.60;98.40;;;;;;4996210;28;20582;-91
2021/05/01 05:40:32;;;;;;;23.70;18.27;;;6.60;98.40;;;;;;4996045;28;20026;-91
2021/05/01 05:42:58;;;;;;;26.08;19.33;;;6.60;98.40;;;;;;4995917;28;20036;-90
2021/05/01 05:45:31;;;;;;;26.95;20.08;;;6.60;98.40;;;;;;4988261;28;20044;-90
2021/05/01 05:47:57;;;;;;;29.42;20.00;;;6.60;98.60;;;;;;4996873;28;20026;-91
2021/05/01 05:50:23;;;;;;;26.63;17.98;;;6.60;98.40;;;;;;4996377;28;20033;-90
2021/05/01 05:52:59;;;;;;;28.02;19.67;;;6.60;98.40;;;;;;5006373;28;20458;-91
2021/05/01 05:55:26;;;;;;;25.65;20.08;;;6.70;98.50;;;;;;4996608;28;20049;-91
2021/05/01 05:57:57;;;;;;;31.13;20.80;;;6.70;98.50;;;;;;4999391;28;20076;-93
2021/05/01 06:00:25;;;;;;;26.92;19.27;;;6.70;98.50;;;;;;5000710;28;20433;-92
2021/05/01 06:02:56;;;;;;;26.92;19.80;;;6.70;98.50;;;;;;5000386;28;20053;-90
2021/05/01 06:05:26;;;;;;;27.77;19.67;;;6.70;98.60;;;;;;5000480;28;20056;-90
2021/05/01 06:08:03;;;;;;;27.20;19.17;;;6.80;98.60;;;;;;5002139;28;20026;-91
2021/05/01 06:10:30;;;;;;;28.23;21.10;;;6.90;98.80;;;;;;5018567;28;20023;-93
2021/05/01 06:12:56;;;;;;;31.90;20.63;;;6.90;98.70;;;;;;5000641;28;20030;-91
2021/05/01 06:15:23;;;;;;;26.17;20.58;;;6.90;98.70;;;;;;5001041;28;20053;-91
2021/05/01 06:17:52;;;;;;;27.98;20.90;;;7.00;98.80;;;;;;4999840;28;20044;-90
2021/05/01 06:20:18;;;;;;;31.63;22.38;;;7.00;98.80;;;;;;5000804;28;20049;-90
2021/05/01 06:22:47;;;;;;;29.38;22.88;;;7.10;98.80;;;;;;5002111;28;20061;-90
2021/05/01 06:25:16;;;;;;;31.13;21.90;;;7.10;98.80;;;;;;5002421;28;20022;-91
2021/05/01 06:27:42;;;;;;;29.73;21.50;;;7.20;98.80;;;;;;4999711;28;20042;-92
2021/05/01 06:30:11;;;;;;;29.05;21.90;;;7.20;98.80;;;;;;4996573;28;20021;-91
2021/05/01 06:32:37;;;;;;;30.23;22.33;;;7.30;98.90;;;;;;4999411;28;20121;-90
2021/05/01 06:35:06;;;;;;;33.83;23.42;;;7.30;98.90;;;;;;4994644;28;20077;-92
2021/05/01 06:37:37;;;;;;;33.22;23.00;;;7.40;99.00;;;;;;5025952;28;20539;-91
2021/05/01 06:40:09;;;;;;;33.22;23.65;;;7.50;99.00;;;;;;5004415;28;20029;-92
2021/05/01 06:42:40;;;;;;;36.35;23.75;;;7.50;99.00;;;;;;5003416;28;20111;-92
2021/05/01 06:45:13;;;;;;;;;;;7.60;99.00;;;;;;5003755;28;20037;-92
2021/05/01 06:47:56;;;;;;;36.90;23.85;;;7.60;99.00;;;;;;5000384;28;19909;-91
2021/05/01 06:50:26;;;;;;;35.08;23.85;;;7.70;99.10;;;;;;5002390;28;20037;-91
2021/05/01 06:52:53;;;;;;;33.67;23.20;;;7.70;99.20;;;;;;5004497;28;20034;-90
2021/05/01 06:55:21;;;;;;;36.22;25.02;;;7.80;99.20;;;;;;5003379;28;20105;-93
2021/05/01 06:57:48;;;;;;;35.45;24.58;;;7.80;99.10;;;;;;5002277;28;20033;-91
2021/05/01 07:00:18;;;;;;;32.47;23.02;;;7.90;99.10;;;;;;5003042;28;20040;-91
2021/05/01 07:02:49;;;;;;;32.50;21.63;;;8.00;99.20;;;;;;4988479;28;20046;-91
2021/05/01 07:05:22;;;;;;;27.63;19.83;;;8.00;99.20;;;;;;5016966;28;20046;-94
2021/05/01 07:07:49;;;;;;;27.85;20.67;;;8.10;99.20;;;;;;5026741;28;20034;-90
2021/05/01 07:10:19;;;;;;;29.67;20.70;;;8.20;99.20;;;;;;5014370;28;20022;-90
2021/05/01 07:12:46;;;;;;;24.52;18.02;;;8.30;99.20;;;;;;5021799;28;20042;-89
2021/05/01 07:15:17;;;;;;;23.45;17.27;;;8.30;99.10;;;;;;5008952;28;20053;-91
2021/05/01 07:17:52;;;;;;;24.85;17.38;;;8.30;99.10;;;;;;4995834;28;20037;-90
2021/05/01 07:20:20;;;;;;;23.20;17.05;;;8.50;99.20;;;;;;5017228;28;20032;-87
2021/05/01 07:22:48;;;;;;;25.30;16.02;;;8.50;99.30;;;;;;5016241;28;20049;-90
2021/05/01 07:25:21;;;;;;;24.20;17.00;;;8.60;99.40;;;;;;5006557;28;20022;-90
2021/05/01 07:28:06;;;;;;;37.17;18.52;;;8.70;99.40;;;;;;5019893;28;20028;-90
2021/05/01 07:30:41;;;;;;;22.45;16.63;;;8.80;99.40;;;;;;5002429;28;20022;-87
2021/05/01 07:33:29;;;;;;;22.33;16.30;;;8.90;99.40;;;;;;5024607;28;20030;-90
2021/05/01 07:36:08;;;;;;;20.30;16.30;;;9.00;99.40;;;;;;5008739;28;20041;-89
2021/05/01 07:38:35;;;;;;;22.42;16.15;;;9.10;99.40;;;;;;5001021;28;20045;-90
2021/05/01 07:41:03;;;;;;;21.17;15.55;;;9.20;99.40;;;;;;5019967;28;20037;-89
2021/05/01 07:43:30;;;;;;;17.75;14.02;;;9.30;99.30;;;;;;5005371;28;20030;-88
2021/05/01 07:46:06;;;;;;;22.27;15.05;;;9.40;99.30;;;;;;5004318;28;20014;-89
2021/05/01 07:48:33;;;;;;;19.50;13.23;;;9.40;98.90;;;;;;5010420;28;20067;-89
2021/05/01 07:51:00;;;;;;;17.83;13.43;;;9.50;98.90;;;;;;5003151;28;20028;-89
2021/05/01 07:53:26;;;;;;;21.15;13.95;;;9.60;98.90;;;;;;4966699;28;20045;-91
2021/05/01 07:55:52;;;;;;;16.75;13.15;;;9.60;98.70;;;;;;4998024;28;20109;-89
2021/05/01 07:58:18;;;;;;;18.02;12.77;;;9.70;98.50;;;;;;5000660;28;20052;-91
2021/05/01 08:00:45;;;;;;;17.55;12.50;;;9.70;98.50;;;;;;5016105;28;20032;-90
2021/05/01 08:03:11;;;;;;;19.17;12.05;;;9.90;98.50;;;;;;4986805;28;20050;-90
2021/05/01 08:05:39;;;;;;;14.70;10.13;;;9.90;98.20;;;;;;4979043;28;20033;-90
2021/05/01 08:08:08;;;;;;;19.48;11.88;;;10.00;98.20;;;;;;4981620;28;20022;-93
2021/05/01 08:10:34;;;;;;;14.40;10.85;;;10.10;98.00;;;;;;4979107;28;20026;-92
2021/05/01 08:13:00;;;;;;;14.40;10.65;;;10.10;97.90;;;;;;4978995;28;20030;-94
2021/05/01 08:15:29;;;;;;;11.32;8.63;;;10.20;97.70;;;;;;4978199;28;20055;-90
2021/05/01 08:17:55;;;;;;;11.48;8.18;;;10.20;97.60;;;;;;4971611;28;20383;-90
2021/05/01 08:20:20;;;;;;;11.20;7.38;;;10.30;97.10;;;;;;4975240;28;20030;-90
2021/05/01 08:22:48;;;;;;;12.10;7.70;;;10.30;96.40;;;;;;4961665;28;20117;-88
2021/05/01 08:25:14;;;;;;;9.75;7.32;;;10.30;96.60;;;;;;4976860;28;20023;-89
2021/05/01 08:27:40;;;;;;;13.27;8.98;;;10.30;96.60;;;;;;4975949;28;20014;-88
2021/05/01 08:30:09;;;;;;;12.13;8.45;;;10.40;96.30;;;;;;4975886;28;20175;-89
2021/05/01 08:32:37;;;;;;;17.27;8.93;;;10.40;95.60;;;;;;4976383;28;20034;-91
2021/05/01 08:35:04;;;;;;;10.48;8.18;;;10.40;94.10;;;;;;4962422;28;20066;-90
2021/05/01 08:37:30;;;;;;;11.15;7.75;;;10.50;94.60;;;;;;4976586;28;20031;-89
2021/05/01 08:39:57;;;;;;;9.75;6.20;;;10.50;94.20;;;;;;4979073;28;20105;-89
2021/05/01 08:42:24;;;;;;;8.68;5.93;;;10.50;93.40;;;;;;4975598;28;20117;-88
2021/05/01 08:44:54;;;;;;;8.30;6.00;;;10.60;93.30;;;;;;4973632;28;20117;-90
2021/05/01 08:47:26;;;;;;;12.27;6.80;;;10.60;93.00;;;;;;4972990;28;20463;-89
2021/05/01 08:49:52;;;;;;;9.52;5.85;;;10.70;93.50;;;;;;4968626;28;20106;-90
2021/05/01 08:52:17;;;;;;;9.00;5.78;;;10.80;93.10;;;;;;4974428;28;20126;-89
2021/05/01 08:54:46;;;;;;;8.52;5.45;;;10.90;93.10;;;;;;4971100;28;20026;-89
2021/05/01 08:57:32;;;;;;;10.50;5.53;;;11.00;93.20;;;;;;4978564;28;20051;-90
2021/05/01 08:59:59;;;;;;;9.63;5.40;;;11.10;92.90;;;;;;4977261;28;20065;-92
2021/05/01 09:02:28;;;;;;;7.75;5.18;;;11.20;92.70;;;;;;4991059;28;20049;-89
2021/05/01 09:04:57;;;;;;;7.82;4.57;;;11.20;92.80;;;;;;4953718;28;20029;-89
2021/05/01 09:07:24;;;;;;;7.10;4.93;;;11.30;92.80;;;;;;4960704;28;20023;-89
2021/05/01 09:09:58;;;;;;;8.63;4.85;;;11.40;92.00;;;;;;4967945;28;20584;-90
2021/05/01 09:12:45;;;;;;;8.25;4.25;;;11.40;91.70;;;;;;4994721;28;20034;-91
2021/05/01 09:15:28;;;;;;;7.63;4.47;;;11.50;91.60;;;;;;4976633;28;20065;-90
2021/05/01 09:18:02;;;;;;;8.23;4.28;;;11.60;91.90;;;;;;4974843;28;20037;-89
2021/05/01 09:20:28;;;;;;;6.90;4.53;;;11.60;91.00;;;;;;4980016;28;20110;-90
2021/05/01 09:22:58;;;;;;;7.70;4.38;;;11.50;90.40;;;;;;4977882;28;20065;-90
2021/05/01 09:25:28;;;;;;;9.13;4.55;;;11.50;90.10;;;;;;4974987;28;20130;-89
2021/05/01 09:28:14;;;;;;;7.10;4.38;;;11.60;90.50;;;;;;4973472;28;20030;-91
2021/05/01 09:30:57;;;;;;;8.52;4.45;;;11.70;90.40;;;;;;4971510;28;20018;-83
2021/05/01 09:33:31;;;;;;;5.68;3.88;;;11.70;90.50;;;;;;4978761;28;20078;-87
2021/05/01 09:36:28;;;;;;;5.95;3.45;;;11.80;89.80;;;;;;4999864;28;20084;-87
2021/05/01 09:38:56;;;;;;;7.15;3.92;;;11.90;87.80;;;;;;4990196;28;20110;-86
2021/05/01 09:41:27;;;;;;;14.93;5.15;;;12.00;87.00;;;;;;4984601;28;20022;-86
2021/05/01 09:44:14;;;;;;;5.05;3.50;;;12.00;88.10;;;;;;4989953;28;20034;-87
2021/05/01 09:46:41;;;;;;;6.90;3.83;;;12.10;87.10;;;;;;4992861;28;20031;-89
2021/05/01 09:49:09;;;;;;;6.20;3.50;;;12.20;86.70;;;;;;5012755;28;20042;-85
2021/05/01 09:51:54;;;;;;;6.55;3.95;;;12.30;86.10;;;;;;4992853;28;20021;-90
2021/05/01 09:54:32;;;;;;;6.47;4.03;;;12.40;85.20;;;;;;4996925;28;20054;-90
2021/05/01 09:57:01;;;;;;;6.22;3.67;;;12.40;86.80;;;;;;4983981;28;20026;-89
2021/05/01 09:59:41;;;;;;;6.90;4.00;;;12.50;85.10;;;;;;4981892;28;20030;-88
2021/05/01 10:02:08;;;;;;;5.80;3.97;;;12.60;86.70;;;;;;5002011;28;20045;-88
2021/05/01 10:04:34;;;;;;;7.15;3.38;;;12.60;86.00;;;;;;4993139;28;20471;-87
2021/05/01 10:07:04;;;;;;;5.30;3.33;;;12.70;82.80;;;;;;4994161;28;20030;-88
2021/05/01 10:09:39;;;;;;;5.50;3.30;;;12.80;81.50;;;;;;4999599;28;20030;-86
2021/05/01 10:12:16;;;;;;;4.93;2.70;;;12.90;80.70;;;;;;4999288;28;20072;-86
2021/05/01 10:14:47;;;;;;;8.48;3.78;;;12.90;77.10;;;;;;4983386;28;20030;-86
2021/05/01 10:17:24;;;;;;;9.57;5.05;;;13.00;78.90;;;;;;4983231;28;20054;-88
2021/05/01 10:19:57;;;;;;;7.90;4.18;;;13.00;79.70;;;;;;5016981;28;20030;-90
2021/05/01 10:22:29;;;;;;;9.43;3.80;;;13.10;79.80;;;;;;5012365;28;20140;-87
2021/05/01 10:25:04;;;;;;;15.55;3.83;;;13.10;78.40;;;;;;4999975;28;20053;-89
2021/05/01 10:27:43;;;;;;;6.00;3.35;;;13.20;80.80;;;;;;4999376;28;20022;-86
2021/05/01 10:30:28;;;;;;;9.02;3.58;;;13.20;79.00;;;;;;4999580;28;20025;-88
2021/05/01 10:33:10;;;;;;;6.13;3.50;;;13.20;76.50;;;;;;4998650;28;20113;-87
2021/05/01 10:35:54;;;;;;;7.47;3.10;;;13.20;76.90;;;;;;4993220;28;20029;-89
2021/05/01 10:38:22;;;;;;;7.03;3.75;;;13.10;75.20;;;;;;4994242;28;20022;-87
2021/05/01 10:40:51;;;;;;;6.57;4.03;;;13.10;77.30;;;;;;4993456;28;20036;-88
2021/05/01 10:43:19;;;;;;;6.28;3.70;;;13.10;77.30;;;;;;4998518;28;20080;-88
2021/05/01 10:45:54;;;;;;;7.65;3.50;;;13.10;78.20;;;;;;4994571;28;20021;-89
2021/05/01 10:48:20;;;;;;;6.82;3.33;;;13.10;78.30;;;;;;4998361;28;20011;-87
2021/05/01 10:50:57;;;;;;;6.78;3.30;;;13.10;78.40;;;;;;4998804;28;20159;-86
2021/05/01 10:53:23;;;;;;;4.80;3.08;;;13.10;78.30;;;;;;4993501;28;20475;-89
2021/05/01 10:55:54;;;;;;;7.70;3.58;;;13.10;77.00;;;;;;4994654;28;20056;-87
2021/05/01 10:58:32;;;;;;;;;;;13.10;76.70;;;;;;4999227;28;20018;-87
2021/05/01 11:00:58;;;;;;;9.35;4.22;;;13.10;77.50;;;;;;4998376;28;19944;-87
2021/05/01 11:03:26;;;;;;;5.90;3.25;;;13.10;79.60;;;;;;4995948;28;20096;-87
2021/05/01 11:05:54;;;;;;;6.05;3.35;;;13.10;78.00;;;;;;4989179;28;20408;-88
2021/05/01 11:08:38;;;;;;;8.38;3.03;;;13.10;76.90;;;;;;4998496;28;20052;-90
2021/05/01 11:11:11;;;;;;;6.00;3.40;;;13.10;77.00;;;;;;5011842;28;20112;-89
2021/05/01 11:13:41;;;;;;;6.32;3.20;;;13.20;76.40;;;;;;4990807;28;20080;-89
2021/05/01 11:16:09;;;;;;;6.43;3.42;;;13.20;77.10;;;;;;4998089;28;20129;-89
2021/05/01 11:18:38;;;;;;;4.75;3.20;;;13.30;76.10;;;;;;4982513;28;20033;-87
2021/05/01 11:21:07;;;;;;;6.47;3.22;;;13.30;77.10;;;;;;4998494;28;20022;-89
2021/05/01 11:23:50;;;;;;;5.90;3.28;;;13.40;77.60;;;;;;4998503;28;20030;-87
2021/05/01 11:26:15;;;;;;;7.32;3.35;;;13.50;77.60;;;;;;5014369;28;20043;-90
2021/05/01 11:28:41;;;;;;;9.43;4.45;;;13.50;77.20;;;;;;5006900;28;20110;-90
2021/05/01 11:31:08;;;;;;;5.70;3.67;;;13.60;76.50;;;;;;4966509;28;20030;-90
2021/05/01 11:33:37;;;;;;;7.00;3.05;;;13.70;78.00;;;;;;4992801;28;20467;-88
2021/05/01 11:36:08;;;;;;;5.28;3.28;;;13.80;76.70;;;;;;5010226;28;20030;-89
2021/05/01 11:38:38;;;;;;;;;;;13.80;77.00;;;;;;4982908;28;20042;-91
2021/05/01 11:41:09;;;;;;;6.57;3.72;;;13.90;74.10;;;;;;5000782;28;19983;-89
2021/05/01 11:43:36;;;;;;;6.38;3.42;;;13.90;74.40;;;;;;4999034;28;20053;-88
2021/05/01 11:46:27;;;;;;;5.78;3.60;;;13.90;73.10;;;;;;5000514;28;20030;-86
2021/05/01 11:49:08;;;;;;;6.03;3.40;;;13.90;69.40;;;;;;5015379;28;20541;-90
2021/05/01 11:52:12;;;;;;;5.00;3.22;;;13.80;72.20;;;;;;5013391;28;20021;-90
2021/05/01 11:54:50;;;;;;;5.15;2.60;;;13.80;66.70;;;;;;4997915;28;20045;-89
2021/05/01 11:57:26;;;;;;;5.28;2.63;;;13.70;66.30;;;;;;4999429;28;20029;-93
2021/05/01 11:59:56;;;;;;;4.35;2.80;;;13.70;69.50;;;;;;5008208;28;20182;-93
2021/05/01 12:02:35;;;;;;;3.40;2.33;;;13.60;69.90;;;;;;4998404;28;20038;-91
2021/05/01 12:05:12;;;;;;;6.22;2.45;;;13.60;68.70;;;;;;5000008;28;20127;-90
2021/05/01 12:07:44;;;;;;;4.72;2.70;;;13.60;69.40;;;;;;4992153;28;20117;-91
2021/05/01 12:10:13;;;;;;;4.68;2.60;;;13.50;70.10;;;;;;4998441;28;20050;-92
2021/05/01 12:12:54;;;;;;;5.60;2.83;;;13.60;70.40;;;;;;5014458;28;20038;-91
2021/05/01 12:15:20;;;;;;;5.45;2.92;;;13.60;70.20;;;;;;5009820;28;20042;-95
2021/05/01 12:17:52;;;;;;;3.85;2.70;;;13.60;71.40;;;;;;4987556;28;20084;-92
2021/05/01 12:20:19;;;;;;;4.47;2.60;;;13.70;71.90;;;;;;4998320;28;20036;-92
2021/05/01 12:22:45;;;;;;;4.53;2.50;;;13.70;70.60;;;;;;4980095;28;20027;-89
2021/05/01 12:25:29;;;;;;;5.15;2.97;;;13.70;68.40;;;;;;4998226;28;20022;-91
2021/05/01 12:27:58;;;;;;;5.68;2.90;;;13.70;65.60;;;;;;5013753;28;20464;-90
2021/05/01 12:30:39;;;;;;;3.78;2.60;;;13.70;66.80;;;;;;4980400;28;20117;-88
2021/05/01 12:33:26;;;;;;;8.77;3.55;;;13.60;68.40;;;;;;5005345;28;20087;-91
2021/05/01 12:36:03;;;;;;;5.25;3.50;;;13.50;67.10;;;;;;4993581;28;20038;-91
2021/05/01 12:38:31;;;;;;;4.20;3.03;;;13.40;66.60;;;;;;4992302;28;20375;-91
2021/05/01 12:41:11;;;;;;;5.95;3.80;;;13.30;68.70;;;;;;4994050;28;20120;-92
2021/05/01 12:43:42;;;;;;;5.85;3.53;;;13.30;69.20;;;;;;4997489;28;20438;-91
2021/05/01 12:46:15;;;;;;;8.07;3.70;;;13.20;71.10;;;;;;4997306;28;20032;-91
2021/05/01 12:48:53;;;;;;;6.25;3.33;;;13.20;69.80;;;;;;4996941;28;20026;-90
2021/05/01 12:51:30;;;;;;;4.65;3.00;;;13.20;70.50;;;;;;4991993;28;20023;-89
2021/05/01 12:54:18;;;;;;;5.15;3.35;;;13.20;70.20;;;;;;4996642;28;20061;-91